createdAt,value
2024-01-08T00:01:33.113Z,67.89
2024-01-08T00:04:39.992Z,66.21
2024-01-08T00:07:46.074Z,66.47
2024-01-08T00:10:53.354Z,67.31
2024-01-08T00:13:59.725Z,68.29
2024-01-08T00:17:06.696Z,67.19
2024-01-08T00:20:12.221Z,67.45
2024-01-08T00:23:25.607Z,66.36
2024-01-08T00:26:32.107Z,65.37
2024-01-08T00:29:41.291Z,65.55
2024-01-08T00:32:49.513Z,66.46
2024-01-08T00:35:57.616Z,67.11
2024-01-08T00:39:08.399Z,67.91
2024-01-08T00:42:17.714Z,69.40
2024-01-08T00:45:24.613Z,69.54
2024-01-08T00:48:31.907Z,68.37
2024-01-08T00:51:41.937Z,69.76
2024-01-08T00:54:48.198Z,70.73
2024-01-08T00:58:01.651Z,69.69
2024-01-08T01:01:08.142Z,68.03
2024-01-08T01:04:13.082Z,68.81
2024-01-08T01:07:16.783Z,71.57
2024-01-08T01:10:23.994Z,75.52
2024-01-08T01:13:37.246Z,76.08
2024-01-08T01:16:58.613Z,74.28
2024-01-08T01:34:13.944Z,79.55
2024-01-08T01:41:03.813Z,76.05
2024-01-08T01:48:08.034Z,72.09
2024-01-08T01:51:49.336Z,67.28
2024-01-08T01:58:29.234Z,67.03
2024-01-08T02:01:35.156Z,65.67
2024-01-08T02:04:40.579Z,57.09
2024-01-08T02:07:46.026Z,56.57
2024-01-08T02:10:48.994Z,57.18
2024-01-08T02:13:52.954Z,58.42
2024-01-08T02:16:56.649Z,56.86
2024-01-08T02:20:00.375Z,70.77
2024-01-08T02:23:08.647Z,66.45
2024-01-08T02:26:15.868Z,59.85
2024-01-08T02:29:21.659Z,60.87
2024-01-08T02:32:25.185Z,67.79
2024-01-08T02:35:28.622Z,62.97
2024-01-08T02:38:40.617Z,61.89
2024-01-08T02:41:58.822Z,65.42
2024-01-08T02:45:10.848Z,68.89
2024-01-08T02:48:17.875Z,69.00
2024-01-08T02:55:05.078Z,64.59
2024-01-08T03:01:45.920Z,69.10
2024-01-08T03:05:01.120Z,65.43
2024-01-08T03:08:22.309Z,65.74
2024-01-08T03:11:47.908Z,63.82
2024-01-08T03:14:58.182Z,62.71
2024-01-08T03:22:04.674Z,67.10
2024-01-08T03:25:15.440Z,67.19
2024-01-08T03:28:21.361Z,64.49
2024-01-08T03:31:35.353Z,67.34
2024-01-08T03:34:52.740Z,64.25
2024-01-08T03:41:45.637Z,68.72
2024-01-08T03:45:10.574Z,67.95
2024-01-08T03:48:22.182Z,67.02
2024-01-08T03:51:34.058Z,66.34
2024-01-08T03:54:47.914Z,63.94
2024-01-08T03:58:05.852Z,64.68
2024-01-08T04:01:28.911Z,64.11
2024-01-08T04:04:55.000Z,62.63
2024-01-08T04:08:08.606Z,59.77
2024-01-08T04:11:19.200Z,62.19
2024-01-08T04:14:35.819Z,63.06
2024-01-08T04:17:45.820Z,63.50
2024-01-08T04:20:54.966Z,61.09
2024-01-08T04:24:02.765Z,61.25
2024-01-08T04:27:12.193Z,59.83
2024-01-08T04:30:18.580Z,61.57
2024-01-08T04:33:24.812Z,62.09
2024-01-08T04:36:31.395Z,60.68
2024-01-08T04:39:37.756Z,62.33
2024-01-08T04:42:44.035Z,60.94
2024-01-08T04:45:49.989Z,61.94
2024-01-08T04:48:56.524Z,61.72
2024-01-08T04:52:02.839Z,61.30
2024-01-08T04:55:09.601Z,62.05
2024-01-08T04:58:15.974Z,60.40
2024-01-08T05:01:22.393Z,59.39
2024-01-08T05:04:28.406Z,58.54
2024-01-08T05:07:35.401Z,58.97
2024-01-08T05:10:41.762Z,59.14
2024-01-08T05:13:48.021Z,58.50
2024-01-08T05:16:54.308Z,57.57
2024-01-08T05:19:58.725Z,57.32
2024-01-08T05:23:05.689Z,56.71
2024-01-08T05:26:10.737Z,56.54
2024-01-08T05:29:14.624Z,56.86
2024-01-08T05:32:19.708Z,56.64
2024-01-08T05:35:25.500Z,56.40
2024-01-08T05:38:31.755Z,55.90
2024-01-08T05:41:41.767Z,55.51
2024-01-08T05:44:47.831Z,54.80
2024-01-08T05:47:56.655Z,54.91
2024-01-08T05:51:01.303Z,54.36
2024-01-08T05:54:05.786Z,54.20
2024-01-08T05:57:09.971Z,53.86
2024-01-08T06:00:16.609Z,53.63
2024-01-08T06:03:23.401Z,53.21
2024-01-08T06:06:29.280Z,52.70
2024-01-08T06:09:35.823Z,52.00
2024-01-08T06:12:41.470Z,51.28
2024-01-08T06:15:48.341Z,50.75
2024-01-08T06:18:54.276Z,50.33
2024-01-08T06:22:00.786Z,49.65
2024-01-08T06:25:07.162Z,49.50
2024-01-08T06:28:12.813Z,49.68
2024-01-08T06:31:18.691Z,49.29
2024-01-08T06:34:24.701Z,48.28
2024-01-08T06:37:30.066Z,48.08
2024-01-08T06:40:36.356Z,48.10
2024-01-08T06:43:42.912Z,47.54
2024-01-08T06:47:01.945Z,47.26
2024-01-08T06:50:07.561Z,47.03
2024-01-08T06:53:14.236Z,46.75
2024-01-08T06:56:18.135Z,46.56
2024-01-08T06:59:21.630Z,46.59
2024-01-08T07:02:24.796Z,46.81
2024-01-08T07:05:28.458Z,46.31
2024-01-08T07:08:33.565Z,46.26
2024-01-08T07:11:39.313Z,46.31
2024-01-08T07:14:46.999Z,45.88
2024-01-08T07:17:51.042Z,45.32
2024-01-08T07:20:54.220Z,45.02
2024-01-08T07:23:57.845Z,45.10
2024-01-08T07:27:00.830Z,45.16
2024-01-08T07:30:06.892Z,44.77
2024-01-08T07:33:13.128Z,44.92
2024-01-08T07:36:19.441Z,45.03
2024-01-08T07:39:25.274Z,45.28
2024-01-08T07:42:31.326Z,45.54
2024-01-08T07:45:38.127Z,45.64
2024-01-08T07:48:44.115Z,45.54
2024-01-08T07:51:50.540Z,45.47
2024-01-08T07:54:57.538Z,45.62
2024-01-08T07:58:04.113Z,45.52
2024-01-08T08:01:15.303Z,45.61
2024-01-08T08:04:21.632Z,46.18
2024-01-08T08:07:27.926Z,46.16
2024-01-08T08:10:34.693Z,46.78
2024-01-08T08:13:41.276Z,46.73
2024-01-08T08:16:47.332Z,47.05
2024-01-08T08:19:53.825Z,47.45
2024-01-08T08:23:01.525Z,47.91
2024-01-08T08:26:08.318Z,48.63
2024-01-08T08:29:15.513Z,49.21
2024-01-08T08:32:19.779Z,49.43
2024-01-08T08:39:09.347Z,50.86
2024-01-08T08:42:17.604Z,50.99
2024-01-08T08:45:23.649Z,51.52
2024-01-08T08:48:32.291Z,51.90
2024-01-08T08:51:39.820Z,52.16
2024-01-08T08:54:44.017Z,52.32
2024-01-08T09:05:25.723Z,52.62
2024-01-08T09:08:39.560Z,52.51
2024-01-08T09:15:14.224Z,52.76
2024-01-08T09:18:21.648Z,52.86
2024-01-08T09:21:25.574Z,53.00
2024-01-08T09:24:31.543Z,53.07
2024-01-08T09:27:39.913Z,53.22
2024-01-08T09:30:43.657Z,53.35
2024-01-08T09:33:47.821Z,53.44
2024-01-08T09:36:52.561Z,53.60
2024-01-08T09:39:56.050Z,53.74
2024-01-08T09:43:06.097Z,54.02
2024-01-08T09:50:41.207Z,54.22
2024-01-08T09:54:06.233Z,54.04
2024-01-08T10:00:45.058Z,55.11
2024-01-08T10:04:17.959Z,55.72
2024-01-08T10:07:25.577Z,56.27
2024-01-08T10:10:39.719Z,56.94
2024-01-08T10:17:16.582Z,58.27
2024-01-08T10:20:22.041Z,58.61
2024-01-08T10:23:33.980Z,59.32
2024-01-08T10:31:05.440Z,59.91
2024-01-08T10:34:40.557Z,60.20
2024-01-08T10:37:50.895Z,60.49
2024-01-08T10:40:58.039Z,61.04
2024-01-08T10:44:02.162Z,61.82
2024-01-08T10:47:13.519Z,62.22
2024-01-08T10:50:33.496Z,62.38
2024-01-08T10:53:55.368Z,62.52
2024-01-08T10:57:02.528Z,62.89
2024-01-08T11:00:14.967Z,63.44
2024-01-08T11:03:19.172Z,64.02
2024-01-08T11:06:25.580Z,64.31
2024-01-08T11:13:00.529Z,64.65
2024-01-08T11:16:09.941Z,65.04
2024-01-08T11:19:24.600Z,64.92
2024-01-08T11:22:30.571Z,64.99
2024-01-08T11:25:34.787Z,65.11
2024-01-08T11:28:43.470Z,65.36
2024-01-08T11:31:50.558Z,65.96
2024-01-08T11:34:59.463Z,66.06
2024-01-08T11:38:26.380Z,66.48
2024-01-08T11:41:35.379Z,66.40
2024-01-08T11:44:42.110Z,66.72
2024-01-08T11:47:49.112Z,66.56
2024-01-08T11:50:55.549Z,66.66
2024-01-08T11:54:05.945Z,67.09
2024-01-08T11:57:11.356Z,66.95
2024-01-08T12:00:17.544Z,66.88
2024-01-08T12:03:25.724Z,66.81
2024-01-08T12:06:31.019Z,66.94
2024-01-08T12:13:13.996Z,67.01
2024-01-08T12:16:19.102Z,67.08
2024-01-08T12:19:34.955Z,67.05
2024-01-08T12:22:43.424Z,67.09
2024-01-08T12:25:57.168Z,67.25
2024-01-08T12:29:04.264Z,67.41
2024-01-08T12:32:12.361Z,67.44
2024-01-08T12:35:21.233Z,67.30
2024-01-08T12:38:25.393Z,67.30
2024-01-08T12:41:37.195Z,67.22
2024-01-08T12:44:42.821Z,67.57
2024-01-08T12:48:02.187Z,67.55
2024-01-08T12:51:15.774Z,67.43
2024-01-08T12:54:21.040Z,67.49
2024-01-08T12:57:32.046Z,67.57
2024-01-08T13:18:57.484Z,67.45
2024-01-08T13:25:55.816Z,67.22
2024-01-08T13:36:39.233Z,67.25
2024-01-08T13:43:15.027Z,67.23
2024-01-08T13:46:19.275Z,67.12
2024-01-08T13:49:24.237Z,67.10
2024-01-08T13:52:54.696Z,67.34
2024-01-08T13:56:23.200Z,67.43
2024-01-08T13:59:40.184Z,67.76
2024-01-08T14:03:18.226Z,67.58
2024-01-08T14:06:22.243Z,67.12
2024-01-08T14:09:26.315Z,67.43
2024-01-08T14:22:46.701Z,68.06
2024-01-08T14:32:49.530Z,68.53
2024-01-08T14:39:38.263Z,69.26
2024-01-08T14:42:45.780Z,68.91
2024-01-08T14:45:52.411Z,68.78
2024-01-08T14:49:23.588Z,68.78
2024-01-08T14:56:22.929Z,69.43
2024-01-08T15:10:52.273Z,70.02
2024-01-08T15:14:11.588Z,70.01
2024-01-08T15:17:33.828Z,69.95
2024-01-08T15:27:56.433Z,70.50
2024-01-08T15:35:24.508Z,70.30
2024-01-08T15:42:09.269Z,70.44
2024-01-08T15:49:10.616Z,70.40
2024-01-08T15:55:50.322Z,70.59
2024-01-08T15:59:04.330Z,70.80
2024-01-08T16:02:21.122Z,70.76
2024-01-08T16:05:57.997Z,70.58
2024-01-08T16:09:41.360Z,70.86
2024-01-08T16:12:58.908Z,70.75
2024-01-08T16:16:28.337Z,70.82
2024-01-08T16:19:48.925Z,71.10
2024-01-08T16:26:28.109Z,70.72
2024-01-08T16:33:30.369Z,70.97
2024-01-08T16:40:24.994Z,71.35
2024-01-08T16:43:40.161Z,71.29
2024-01-08T16:46:58.497Z,71.71
2024-01-08T17:09:19.681Z,71.95
2024-01-08T17:16:27.690Z,71.96
2024-01-08T17:20:07.646Z,71.90
2024-01-08T17:27:04.145Z,71.72
2024-01-08T17:30:38.244Z,71.87
2024-01-08T17:34:07.947Z,72.07
2024-01-08T17:37:31.901Z,71.89
2024-01-08T17:44:17.971Z,71.68
2024-01-08T17:47:31.849Z,71.93
2024-01-08T17:50:54.021Z,72.23
2024-01-08T17:54:29.956Z,72.29
2024-01-08T18:01:42.839Z,72.43
2024-01-08T18:08:37.105Z,71.85
2024-01-08T18:16:01.183Z,72.51
2024-01-08T18:27:02.209Z,73.09
2024-01-08T18:31:03.553Z,73.33
2024-01-08T18:34:34.563Z,73.71
2024-01-08T18:38:31.542Z,73.11
2024-01-08T18:52:54.767Z,73.31
2024-01-08T18:56:21.424Z,73.17
2024-01-08T18:59:42.754Z,73.13
2024-01-08T19:03:18.154Z,72.63
2024-01-08T19:14:10.673Z,73.32
2024-01-08T19:25:30.615Z,73.34
2024-01-08T19:40:13.220Z,73.98
2024-01-08T19:51:13.351Z,74.07
2024-01-08T19:58:31.852Z,74.27
2024-01-08T20:02:02.051Z,74.38
2024-01-08T20:09:06.252Z,74.14
2024-01-08T20:12:29.616Z,73.88
2024-01-08T20:19:35.548Z,74.41
2024-01-08T20:26:31.081Z,74.16
2024-01-08T20:29:43.163Z,73.41
2024-01-08T20:33:08.525Z,73.15
2024-01-08T20:36:25.926Z,72.94
2024-01-08T20:39:57.745Z,72.45
2024-01-08T20:43:10.679Z,72.41
2024-01-08T20:46:25.150Z,72.16
2024-01-08T20:49:43.404Z,72.09
2024-01-08T20:53:05.227Z,71.45
2024-01-08T21:00:01.978Z,72.35
2024-01-08T21:03:18.468Z,73.48
2024-01-08T21:06:53.479Z,72.82
2024-01-08T21:14:36.480Z,72.30
2024-01-08T21:18:18.102Z,72.40
2024-01-08T21:21:27.930Z,71.86
2024-01-08T21:24:34.522Z,71.78
2024-01-08T21:27:48.356Z,72.03
2024-01-08T21:31:10.767Z,72.50
2024-01-08T21:34:28.295Z,72.40
2024-01-08T21:37:40.074Z,72.01
2024-01-08T21:40:46.805Z,69.80
2024-01-08T21:44:03.052Z,64.70
2024-01-08T21:47:11.786Z,61.61
2024-01-08T21:50:22.631Z,59.75
2024-01-08T21:53:32.651Z,58.88
2024-01-08T21:56:40.577Z,59.54
2024-01-08T21:59:52.323Z,60.54
2024-01-08T22:03:04.884Z,61.23
2024-01-08T22:06:14.961Z,62.01
2024-01-08T22:09:27.749Z,62.15
2024-01-08T22:12:43.049Z,61.63
2024-01-08T22:19:27.642Z,60.59
2024-01-08T22:22:37.350Z,60.81
2024-01-08T22:25:47.743Z,61.24
2024-01-08T22:29:01.049Z,61.50
2024-01-08T22:43:02.000Z,62.30
2024-01-08T22:46:06.406Z,62.17
2024-01-08T22:49:10.428Z,62.52
2024-01-08T22:52:14.677Z,63.90
2024-01-08T22:55:17.941Z,64.32
2024-01-08T22:58:22.098Z,64.62
2024-01-08T23:01:25.624Z,64.50
2024-01-08T23:04:29.763Z,64.38
2024-01-08T23:07:32.958Z,63.38
2024-01-08T23:10:38.727Z,62.49
2024-01-08T23:13:44.042Z,62.24
2024-01-08T23:16:50.842Z,61.78
2024-01-08T23:19:56.587Z,61.32
2024-01-08T23:23:04.192Z,61.57
2024-01-08T23:26:10.275Z,61.32
2024-01-08T23:29:16.752Z,61.27
2024-01-08T23:32:22.382Z,61.07
2024-01-08T23:35:28.845Z,61.68
2024-01-08T23:38:35.477Z,62.34
2024-01-08T23:41:41.948Z,63.60
2024-01-08T23:44:48.024Z,65.33
2024-01-08T23:47:54.304Z,65.42
2024-01-08T23:50:59.156Z,66.16
2024-01-08T23:54:04.708Z,64.09
2024-01-08T23:57:11.678Z,61.85
